sensor_id;sensor_type;location;lat;lon;timestamp;pressure;altitude;pressure_sealevel;temperature;humidity
18918;BME280;9591;52.742;13.650;2022-10-20T00:01:10;102303.28;;;2.32;100.00
18918;BME280;9591;52.742;13.650;2022-10-20T00:03:57;102299.66;;;2.26;100.00
18918;BME280;9591;52.742;13.650;2022-10-20T00:06:43;102293.53;;;2.26;100.00
18918;BME280;9591;52.742;13.650;2022-10-20T00:09:32;102288.09;;;2.18;100.00
18918;BME280;9591;52.742;13.650;2022-10-20T00:12:18;102292.50;;;2.19;100.00
18918;BME280;9591;52.742;13.650;2022-10-20T00:15:06;102290.00;;;2.24;100.00
18918;BME280;9591;52.742;13.650;2022-10-20T00:17:53;102295.22;;;2.24;100.00
18918;BME280;9591;52.742;13.650;2022-10-20T00:20:40;102292.63;;;2.24;100.00
18918;BME280;9591;52.742;13.650;2022-10-20T00:23:27;102299.56;;;2.23;100.00
18918;BME280;9591;52.742;13.650;2022-10-20T00:26:17;102289.97;;;2.22;100.00
18918;BME280;9591;52.742;13.650;2022-10-20T00:29:04;102297.84;;;2.24;100.00
18918;BME280;9591;52.742;13.650;2022-10-20T00:31:50;102232.38;;;1.88;100.00
18918;BME280;9591;52.742;13.650;2022-10-20T00:34:37;102290.97;;;2.27;100.00
18918;BME280;9591;52.742;13.650;2022-10-20T00:37:24;102288.31;;;2.26;100.00
18918;BME280;9591;52.742;13.650;2022-10-20T00:40:12;102284.75;;;2.24;100.00
18918;BME280;9591;52.742;13.650;2022-10-20T00:43:00;102279.50;;;2.22;100.00
18918;BME280;9591;52.742;13.650;2022-10-20T00:45:50;102278.59;;;2.22;100.00
18918;BME280;9591;52.742;13.650;2022-10-20T00:48:38;102283.00;;;2.23;100.00
18918;BME280;9591;52.742;13.650;2022-10-20T00:51:28;102278.56;;;2.20;100.00
18918;BME280;9591;52.742;13.650;2022-10-20T00:54:17;102270.69;;;2.19;100.00
18918;BME280;9591;52.742;13.650;2022-10-20T00:57:05;102270.66;;;2.17;100.00
18918;BME280;9591;52.742;13.650;2022-10-20T00:59:53;102275.03;;;2.18;100.00
18918;BME280;9591;52.742;13.650;2022-10-20T01:02:40;102277.56;;;2.15;100.00
18918;BME280;9591;52.742;13.650;2022-10-20T01:05:27;102272.53;;;2.23;100.00
18918;BME280;9591;52.742;13.650;2022-10-20T01:08:14;102266.38;;;2.21;100.00
18918;BME280;9591;52.742;13.650;2022-10-20T01:11:09;102257.56;;;2.17;100.00
18918;BME280;9591;52.742;13.650;2022-10-20T01:14:16;102259.16;;;2.11;100.00
18918;BME280;9591;52.742;13.650;2022-10-20T01:17:15;102257.38;;;2.10;100.00
18918;BME280;9591;52.742;13.650;2022-10-20T01:20:23;102255.56;;;2.07;100.00
18918;BME280;9591;52.742;13.650;2022-10-20T01:23:30;102258.97;;;2.05;100.00
18918;BME280;9591;52.742;13.650;2022-10-20T01:26:56;102260.63;;;2.01;100.00
18918;BME280;9591;52.742;13.650;2022-10-20T01:29:52;102261.44;;;1.98;100.00
18918;BME280;9591;52.742;13.650;2022-10-20T01:32:50;102258.81;;;1.98;100.00
18918;BME280;9591;52.742;13.650;2022-10-20T01:35:49;102253.50;;;1.95;100.00
18918;BME280;9591;52.742;13.650;2022-10-20T01:38:41;102244.69;;;1.92;100.00
18918;BME280;9591;52.742;13.650;2022-10-20T01:41:32;102242.81;;;1.86;100.00
18918;BME280;9591;52.742;13.650;2022-10-20T01:44:23;102247.09;;;1.84;100.00
18918;BME280;9591;52.742;13.650;2022-10-20T01:47:12;102241.00;;;1.84;100.00
18918;BME280;9591;52.742;13.650;2022-10-20T01:50:00;102221.66;;;1.77;100.00
18918;BME280;9591;52.742;13.650;2022-10-20T01:52:48;102229.91;;;1.92;100.00
18918;BME280;9591;52.742;13.650;2022-10-20T01:55:36;102229.00;;;1.92;100.00
18918;BME280;9591;52.742;13.650;2022-10-20T02:02:00;102213.16;;;1.86;100.00
18918;BME280;9591;52.742;13.650;2022-10-20T02:05:06;102216.50;;;1.80;100.00
18918;BME280;9591;52.742;13.650;2022-10-20T02:08:01;102194.47;;;1.69;100.00
18918;BME280;9591;52.742;13.650;2022-10-20T02:10:54;102195.44;;;1.73;100.00
18918;BME280;9591;52.742;13.650;2022-10-20T02:13:42;102190.16;;;1.71;100.00
18918;BME280;9591;52.742;13.650;2022-10-20T02:16:32;102187.59;;;1.73;100.00
18918;BME280;9591;52.742;13.650;2022-10-20T02:19:23;102186.63;;;1.69;100.00
18918;BME280;9591;52.742;13.650;2022-10-20T02:22:13;102183.16;;;1.70;100.00
18918;BME280;9591;52.742;13.650;2022-10-20T02:25:01;102178.84;;;1.71;100.00
18918;BME280;9591;52.742;13.650;2022-10-20T02:27:48;102183.34;;;1.78;100.00
18918;BME280;9591;52.742;13.650;2022-10-20T02:30:36;102186.03;;;1.81;100.00
18918;BME280;9591;52.742;13.650;2022-10-20T02:33:24;102185.19;;;1.82;100.00
18918;BME280;9591;52.742;13.650;2022-10-20T02:36:15;102176.38;;;1.78;100.00
18918;BME280;9591;52.742;13.650;2022-10-20T02:39:03;102171.03;;;1.74;100.00
18918;BME280;9591;52.742;13.650;2022-10-20T02:41:50;102170.03;;;1.67;100.00
18918;BME280;9591;52.742;13.650;2022-10-20T02:44:37;102166.38;;;1.60;100.00
18918;BME280;9591;52.742;13.650;2022-10-20T02:47:24;102127.41;;;1.37;100.00
18918;BME280;9591;52.742;13.650;2022-10-20T02:50:11;102169.00;;;1.62;100.00
18918;BME280;9591;52.742;13.650;2022-10-20T02:52:57;102175.16;;;1.64;100.00
18918;BME280;9591;52.742;13.650;2022-10-20T02:55:46;102170.09;;;1.70;100.00
18918;BME280;9591;52.742;13.650;2022-10-20T02:58:32;102169.31;;;1.74;100.00
18918;BME280;9591;52.742;13.650;2022-10-20T03:01:19;102169.41;;;1.77;100.00
18918;BME280;9591;52.742;13.650;2022-10-20T03:04:06;102169.44;;;1.79;100.00
18918;BME280;9591;52.742;13.650;2022-10-20T03:06:53;102158.91;;;1.76;100.00
18918;BME280;9591;52.742;13.650;2022-10-20T03:09:40;102158.13;;;1.80;100.00
18918;BME280;9591;52.742;13.650;2022-10-20T03:12:29;102159.22;;;1.88;100.00
18918;BME280;9591;52.742;13.650;2022-10-20T03:15:16;102159.88;;;1.79;100.00
18918;BME280;9591;52.742;13.650;2022-10-20T03:18:03;102155.41;;;1.75;100.00
18918;BME280;9591;52.742;13.650;2022-10-20T03:20:50;102149.22;;;1.70;100.00
18918;BME280;9591;52.742;13.650;2022-10-20T03:23:36;102149.03;;;1.64;100.00
18918;BME280;9591;52.742;13.650;2022-10-20T03:26:23;102149.88;;;1.63;100.00
18918;BME280;9591;52.742;13.650;2022-10-20T03:29:11;102143.81;;;1.64;100.00
18918;BME280;9591;52.742;13.650;2022-10-20T03:31:58;102145.63;;;1.67;100.00
18918;BME280;9591;52.742;13.650;2022-10-20T03:34:45;102143.97;;;1.70;100.00
18918;BME280;9591;52.742;13.650;2022-10-20T03:37:31;102136.19;;;1.72;100.00
18918;BME280;9591;52.742;13.650;2022-10-20T03:40:18;102135.31;;;1.71;100.00
18918;BME280;9591;52.742;13.650;2022-10-20T03:43:05;102138.81;;;1.72;100.00
18918;BME280;9591;52.742;13.650;2022-10-20T03:46:01;102137.97;;;1.73;100.00
18918;BME280;9591;52.742;13.650;2022-10-20T03:48:48;102136.22;;;1.75;100.00
18918;BME280;9591;52.742;13.650;2022-10-20T03:51:35;102126.75;;;1.78;100.00
18918;BME280;9591;52.742;13.650;2022-10-20T03:54:22;102125.88;;;1.78;100.00
18918;BME280;9591;52.742;13.650;2022-10-20T03:57:08;102122.28;;;1.74;100.00
18918;BME280;9591;52.742;13.650;2022-10-20T03:59:55;102128.38;;;1.73;100.00
18918;BME280;9591;52.742;13.650;2022-10-20T04:02:44;102121.41;;;1.72;100.00
18918;BME280;9591;52.742;13.650;2022-10-20T04:05:31;102123.16;;;1.73;100.00
18918;BME280;9591;52.742;13.650;2022-10-20T04:08:18;102130.03;;;1.70;100.00
18918;BME280;9591;52.742;13.650;2022-10-20T04:11:05;102096.56;;;1.55;100.00
18918;BME280;9591;52.742;13.650;2022-10-20T04:13:51;102121.41;;;1.72;100.00
18918;BME280;9591;52.742;13.650;2022-10-20T04:16:38;102127.47;;;1.71;100.00
18918;BME280;9591;52.742;13.650;2022-10-20T04:19:27;102127.47;;;1.71;100.00
18918;BME280;9591;52.742;13.650;2022-10-20T04:22:14;102131.78;;;1.69;100.00
18918;BME280;9591;52.742;13.650;2022-10-20T04:25:01;102136.03;;;1.66;100.00
18918;BME280;9591;52.742;13.650;2022-10-20T04:27:48;102129.84;;;1.62;100.00
18918;BME280;9591;52.742;13.650;2022-10-20T04:30:37;102122.81;;;1.59;100.00
18918;BME280;9591;52.742;13.650;2022-10-20T04:33:23;102114.16;;;1.62;100.00
18918;BME280;9591;52.742;13.650;2022-10-20T04:36:12;102107.13;;;1.59;100.00
18918;BME280;9591;52.742;13.650;2022-10-20T04:38:59;102106.22;;;1.57;100.00
18918;BME280;9591;52.742;13.650;2022-10-20T04:41:46;102119.38;;;1.62;100.00
18918;BME280;9591;52.742;13.650;2022-10-20T04:44:33;102121.06;;;1.60;100.00
18918;BME280;9591;52.742;13.650;2022-10-20T04:47:20;102110.56;;;1.57;100.00
18918;BME280;9591;52.742;13.650;2022-10-20T04:50:07;102112.19;;;1.53;100.00
18918;BME280;9591;52.742;13.650;2022-10-20T04:52:57;102103.44;;;1.51;100.00
18918;BME280;9591;52.742;13.650;2022-10-20T04:55:52;102102.63;;;1.54;100.00
18918;BME280;9591;52.742;13.650;2022-10-20T04:58:39;102092.09;;;1.51;100.00
18918;BME280;9591;52.742;13.650;2022-10-20T05:01:28;102088.53;;;1.47;100.00
18918;BME280;9591;52.742;13.650;2022-10-20T05:04:15;102088.78;;;1.56;100.00
18918;BME280;9591;52.742;13.650;2022-10-20T05:07:05;102074.63;;;1.48;100.00
18918;BME280;9591;52.742;13.650;2022-10-20T05:09:53;102074.56;;;1.45;100.00
18918;BME280;9591;52.742;13.650;2022-10-20T05:12:40;102069.16;;;1.39;100.00
18918;BME280;9591;52.742;13.650;2022-10-20T05:15:27;102071.69;;;1.36;100.00
18918;BME280;9591;52.742;13.650;2022-10-20T05:18:13;102074.31;;;1.36;100.00
18918;BME280;9591;52.742;13.650;2022-10-20T05:21:04;102067.53;;;1.43;100.00
18918;BME280;9591;52.742;13.650;2022-10-20T05:23:54;102061.44;;;1.44;100.00
18918;BME280;9591;52.742;13.650;2022-10-20T05:26:43;102058.03;;;1.46;100.00
18918;BME280;9591;52.742;13.650;2022-10-20T05:29:30;102068.72;;;1.55;100.00
18918;BME280;9591;52.742;13.650;2022-10-20T05:32:16;102068.03;;;1.62;100.00
18918;BME280;9591;52.742;13.650;2022-10-20T05:35:04;102073.34;;;1.66;100.00
18918;BME280;9591;52.742;13.650;2022-10-20T05:37:51;102057.81;;;1.72;100.00
18918;BME280;9591;52.742;13.650;2022-10-20T05:40:37;102063.97;;;1.75;100.00
18918;BME280;9591;52.742;13.650;2022-10-20T05:43:25;102063.00;;;1.70;100.00
18918;BME280;9591;52.742;13.650;2022-10-20T05:46:12;102060.41;;;1.70;100.00
18918;BME280;9591;52.742;13.650;2022-10-20T05:49:00;102058.78;;;1.77;100.00
18918;BME280;9591;52.742;13.650;2022-10-20T05:51:48;102061.41;;;1.77;100.00
18918;BME280;9591;52.742;13.650;2022-10-20T05:54:34;102066.53;;;1.72;100.00
18918;BME280;9591;52.742;13.650;2022-10-20T05:57:21;102063.94;;;1.72;100.00
18918;BME280;9591;52.742;13.650;2022-10-20T06:00:11;102071.03;;;1.79;100.00
18918;BME280;9591;52.742;13.650;2022-10-20T06:02:58;102073.72;;;1.82;100.00
18918;BME280;9591;52.742;13.650;2022-10-20T06:05:45;102083.50;;;1.89;100.00
18918;BME280;9591;52.742;13.650;2022-10-20T06:08:32;102081.72;;;1.88;100.00
18918;BME280;9591;52.742;13.650;2022-10-20T06:11:19;102088.75;;;1.91;100.00
18918;BME280;9591;52.742;13.650;2022-10-20T06:14:07;102069.31;;;1.80;100.00
18918;BME280;9591;52.742;13.650;2022-10-20T06:16:56;102074.69;;;1.86;100.00
18918;BME280;9591;52.742;13.650;2022-10-20T06:19:42;102087.91;;;1.92;100.00
18918;BME280;9591;52.742;13.650;2022-10-20T06:22:29;102088.88;;;1.95;100.00
18918;BME280;9591;52.742;13.650;2022-10-20T06:25:16;102078.59;;;2.03;100.00
18918;BME280;9591;52.742;13.650;2022-10-20T06:28:03;102073.53;;;2.09;100.00
18918;BME280;9591;52.742;13.650;2022-10-20T06:30:50;102065.50;;;2.02;100.00
18918;BME280;9591;52.742;13.650;2022-10-20T06:33:38;102081.44;;;2.12;100.00
18918;BME280;9591;52.742;13.650;2022-10-20T06:36:26;102081.44;;;2.12;100.00
18918;BME280;9591;52.742;13.650;2022-10-20T06:39:15;102091.28;;;2.24;100.00
18918;BME280;9591;52.742;13.650;2022-10-20T06:42:02;102094.31;;;2.41;100.00
18918;BME280;9591;52.742;13.650;2022-10-20T06:45:02;102094.53;;;2.51;100.00
18918;BME280;9591;52.742;13.650;2022-10-20T06:47:49;102090.28;;;2.56;100.00
18918;BME280;9591;52.742;13.650;2022-10-20T06:50:37;102092.16;;;2.63;100.00
18918;BME280;9591;52.742;13.650;2022-10-20T06:53:25;102094.25;;;2.80;100.00
18918;BME280;9591;52.742;13.650;2022-10-20T06:56:14;102093.63;;;2.91;100.00
18918;BME280;9591;52.742;13.650;2022-10-20T06:59:03;102076.53;;;3.09;100.00
18918;BME280;9591;52.742;13.650;2022-10-20T07:01:50;102065.53;;;3.26;100.00
18918;BME280;9591;52.742;13.650;2022-10-20T07:04:37;102080.81;;;3.52;100.00
18918;BME280;9591;52.742;13.650;2022-10-20T07:07:25;102075.00;;;3.68;100.00
18918;BME280;9591;52.742;13.650;2022-10-20T07:10:12;102077.53;;;3.63;100.00
18918;BME280;9591;52.742;13.650;2022-10-20T07:12:59;102078.41;;;3.64;100.00
18918;BME280;9591;52.742;13.650;2022-10-20T07:15:46;102078.28;;;3.56;100.00
18918;BME280;9591;52.742;13.650;2022-10-20T07:18:34;102074.81;;;3.57;100.00
18918;BME280;9591;52.742;13.650;2022-10-20T07:21:22;102077.72;;;3.74;100.00
18918;BME280;9591;52.742;13.650;2022-10-20T07:24:20;102076.28;;;3.93;100.00
18918;BME280;9591;52.742;13.650;2022-10-20T07:27:06;102072.84;;;3.95;100.00
18918;BME280;9591;52.742;13.650;2022-10-20T07:29:53;102072.41;;;4.24;100.00
18918;BME280;9591;52.742;13.650;2022-10-20T07:32:40;102066.47;;;4.39;100.00
18918;BME280;9591;52.742;13.650;2022-10-20T07:35:28;102061.28;;;4.43;100.00
18918;BME280;9591;52.742;13.650;2022-10-20T07:38:15;102070.13;;;4.48;100.00
18918;BME280;9591;52.742;13.650;2022-10-20T07:41:03;102056.09;;;4.46;100.00
18918;BME280;9591;52.742;13.650;2022-10-20T07:43:50;102062.66;;;4.79;100.00
18918;BME280;9591;52.742;13.650;2022-10-20T07:46:37;102059.56;;;5.13;100.00
18918;BME280;9591;52.742;13.650;2022-10-20T07:49:24;102056.44;;;5.51;100.00
18918;BME280;9591;52.742;13.650;2022-10-20T07:52:31;102051.44;;;5.81;100.00
18918;BME280;9591;52.742;13.650;2022-10-20T07:55:18;102024.31;;;5.87;100.00
18918;BME280;9591;52.742;13.650;2022-10-20T07:58:24;102043.88;;;6.25;100.00
18918;BME280;9591;52.742;13.650;2022-10-20T08:01:11;102044.88;;;6.47;100.00
18918;BME280;9591;52.742;13.650;2022-10-20T08:03:59;102039.66;;;6.55;100.00
18918;BME280;9591;52.742;13.650;2022-10-20T08:06:45;102036.25;;;6.71;100.00
18918;BME280;9591;52.742;13.650;2022-10-20T08:09:32;102025.75;;;6.82;100.00
18918;BME280;9591;52.742;13.650;2022-10-20T08:12:20;102027.53;;;7.01;100.00
18918;BME280;9591;52.742;13.650;2022-10-20T08:15:09;102017.91;;;7.09;100.00
18918;BME280;9591;52.742;13.650;2022-10-20T08:17:57;102019.72;;;7.33;100.00
18918;BME280;9591;52.742;13.650;2022-10-20T08:20:45;102016.22;;;7.46;100.00
18918;BME280;9591;52.742;13.650;2022-10-20T08:23:32;102012.72;;;7.58;100.00
18918;BME280;9591;52.742;13.650;2022-10-20T08:26:20;102005.69;;;7.66;100.00
18918;BME280;9591;52.742;13.650;2022-10-20T08:29:07;102009.19;;;7.77;100.00
18918;BME280;9591;52.742;13.650;2022-10-20T08:31:56;102006.53;;;7.83;100.00
18918;BME280;9591;52.742;13.650;2022-10-20T08:34:42;102003.88;;;7.96;100.00
18918;BME280;9591;52.742;13.650;2022-10-20T08:37:31;101998.56;;;8.09;100.00
18918;BME280;9591;52.742;13.650;2022-10-20T08:40:21;102002.09;;;8.10;100.00
18918;BME280;9591;52.742;13.650;2022-10-20T08:43:12;102003.81;;;8.26;100.00
18918;BME280;9591;52.742;13.650;2022-10-20T08:46:01;102010.84;;;8.32;100.00
18918;BME280;9591;52.742;13.650;2022-10-20T08:48:50;102001.13;;;8.50;100.00
18918;BME280;9591;52.742;13.650;2022-10-20T08:51:37;101991.44;;;8.59;100.00
18918;BME280;9591;52.742;13.650;2022-10-20T08:54:24;101981.72;;;8.65;100.00
18918;BME280;9591;52.742;13.650;2022-10-20T08:57:20;101985.09;;;8.90;100.00
18918;BME280;9591;52.742;13.650;2022-10-20T09:00:15;101981.50;;;9.03;100.00
18918;BME280;9591;52.742;13.650;2022-10-20T09:03:14;101984.00;;;9.23;100.00
18918;BME280;9591;52.742;13.650;2022-10-20T09:06:07;101988.38;;;9.27;100.00
18918;BME280;9591;52.742;13.650;2022-10-20T09:08:55;101983.91;;;9.35;100.00
18918;BME280;9591;52.742;13.650;2022-10-20T09:11:42;101989.09;;;9.50;100.00
18918;BME280;9591;52.742;13.650;2022-10-20T09:14:32;101993.38;;;9.64;100.00
18918;BME280;9591;52.742;13.650;2022-10-20T09:17:46;101978.19;;;9.85;100.00
18918;BME280;9591;52.742;13.650;2022-10-20T09:20:37;101960.50;;;9.89;100.00
18918;BME280;9591;52.742;13.650;2022-10-20T09:23:38;101977.91;;;10.13;100.00
18918;BME280;9591;52.742;13.650;2022-10-20T09:26:32;101967.25;;;10.22;100.00
18918;BME280;9591;52.742;13.650;2022-10-20T09:29:39;101967.19;;;10.27;100.00
18918;BME280;9591;52.742;13.650;2022-10-20T09:32:32;101976.72;;;10.41;100.00
18918;BME280;9591;52.742;13.650;2022-10-20T09:35:35;101940.69;;;10.28;100.00
18918;BME280;9591;52.742;13.650;2022-10-20T09:38:25;101963.41;;;10.46;100.00
18918;BME280;9591;52.742;13.650;2022-10-20T09:41:16;101960.75;;;10.47;100.00
18918;BME280;9591;52.742;13.650;2022-10-20T09:44:13;101949.22;;;10.50;100.00
18918;BME280;9591;52.742;13.650;2022-10-20T09:47:01;101949.03;;;10.65;100.00
18918;BME280;9591;52.742;13.650;2022-10-20T09:49:51;101949.00;;;10.67;100.00
18918;BME280;9591;52.742;13.650;2022-10-20T09:52:45;101943.63;;;10.74;100.00
18918;BME280;9591;52.742;13.650;2022-10-20T09:55:34;101940.78;;;10.88;100.00
18918;BME280;9591;52.742;13.650;2022-10-20T09:58:26;101918.59;;;10.94;100.00
18918;BME280;9591;52.742;13.650;2022-10-20T10:01:15;101924.75;;;10.96;100.00
18918;BME280;9591;52.742;13.650;2022-10-20T10:04:10;101923.03;;;10.93;100.00
18918;BME280;9591;52.742;13.650;2022-10-20T10:07:28;101914.03;;;11.03;100.00
18918;BME280;9591;52.742;13.650;2022-10-20T10:10:24;101913.00;;;11.13;100.00
18918;BME280;9591;52.742;13.650;2022-10-20T10:13:21;101900.41;;;11.26;100.00
18918;BME280;9591;52.742;13.650;2022-10-20T10:16:13;101899.34;;;11.35;100.00
18918;BME280;9591;52.742;13.650;2022-10-20T10:19:02;101895.69;;;11.42;100.00
18918;BME280;9591;52.742;13.650;2022-10-20T10:21:52;101893.97;;;11.39;100.00
18918;BME280;9591;52.742;13.650;2022-10-20T10:24:42;101877.16;;;11.40;100.00
18918;BME280;9591;52.742;13.650;2022-10-20T10:27:33;101874.41;;;11.45;100.00
18918;BME280;9591;52.742;13.650;2022-10-20T10:30:26;101865.44;;;11.52;100.00
18918;BME280;9591;52.742;13.650;2022-10-20T10:33:24;101861.72;;;11.62;100.00
18918;BME280;9591;52.742;13.650;2022-10-20T10:36:14;101851.69;;;11.79;100.00
18918;BME280;9591;52.742;13.650;2022-10-20T10:39:08;101856.03;;;11.84;100.00
18918;BME280;9591;52.742;13.650;2022-10-20T10:42:06;101859.44;;;11.92;100.00
18918;BME280;9591;52.742;13.650;2022-10-20T10:45:05;101849.72;;;11.91;100.00
18918;BME280;9591;52.742;13.650;2022-10-20T10:48:06;101834.44;;;12.02;100.00
18918;BME280;9591;52.742;13.650;2022-10-20T10:51:00;101832.38;;;12.14;100.00
18918;BME280;9591;52.742;13.650;2022-10-20T10:53:56;101822.38;;;12.26;100.00
18918;BME280;9591;52.742;13.650;2022-10-20T10:56:55;101817.59;;;12.41;100.00
18918;BME280;9591;52.742;13.650;2022-10-20T10:59:43;101812.97;;;12.51;100.00
18918;BME280;9591;52.742;13.650;2022-10-20T11:02:56;101803.66;;;12.70;100.00
18918;BME280;9591;52.742;13.650;2022-10-20T11:05:58;101801.03;;;12.69;100.00
18918;BME280;9591;52.742;13.650;2022-10-20T11:08:59;101801.88;;;12.71;100.00
18918;BME280;9591;52.742;13.650;2022-10-20T11:12:02;101793.13;;;12.66;100.00
18918;BME280;9591;52.742;13.650;2022-10-20T11:14:59;101792.88;;;12.76;100.00
18918;BME280;9591;52.742;13.650;2022-10-20T11:17:54;101790.25;;;12.75;100.00
18918;BME280;9591;52.742;13.650;2022-10-20T11:20:52;101786.81;;;12.70;100.00
18918;BME280;9591;52.742;13.650;2022-10-20T11:23:53;101776.03;;;12.76;100.00
18918;BME280;9591;52.742;13.650;2022-10-20T11:26:46;101778.44;;;12.87;98.67
18918;BME280;9591;52.742;13.650;2022-10-20T11:29:40;101763.09;;;12.98;100.00
18918;BME280;9591;52.742;13.650;2022-10-20T11:32:30;101754.28;;;12.96;98.40
18918;BME280;9591;52.742;13.650;2022-10-20T11:35:32;101750.72;;;12.97;95.88
18918;BME280;9591;52.742;13.650;2022-10-20T11:38:24;101755.06;;;12.99;98.57
18918;BME280;9591;52.742;13.650;2022-10-20T11:41:21;101757.78;;;12.98;95.98
18918;BME280;9591;52.742;13.650;2022-10-20T11:44:14;101733.69;;;13.02;97.10
18918;BME280;9591;52.742;13.650;2022-10-20T11:47:07;101727.28;;;13.09;96.94
18918;BME280;9591;52.742;13.650;2022-10-20T11:49:57;101714.69;;;13.18;95.97
18918;BME280;9591;52.742;13.650;2022-10-20T11:52:56;101708.91;;;13.34;94.93
18918;BME280;9591;52.742;13.650;2022-10-20T11:55:58;101708.13;;;13.31;94.12
18918;BME280;9591;52.742;13.650;2022-10-20T11:59:05;101695.38;;;13.42;99.47
18918;BME280;9591;52.742;13.650;2022-10-20T12:02:10;101695.25;;;13.47;96.90
18918;BME280;9591;52.742;13.650;2022-10-20T12:05:17;101691.50;;;13.54;95.66
18918;BME280;9591;52.742;13.650;2022-10-20T12:08:24;101683.38;;;13.58;94.19
18918;BME280;9591;52.742;13.650;2022-10-20T12:11:17;101688.78;;;13.55;94.93
18918;BME280;9591;52.742;13.650;2022-10-20T12:14:18;101686.88;;;13.60;94.81
18918;BME280;9591;52.742;13.650;2022-10-20T12:17:19;101685.94;;;13.61;92.21
18918;BME280;9591;52.742;13.650;2022-10-20T12:20:48;101675.56;;;13.52;93.60
18918;BME280;9591;52.742;13.650;2022-10-20T12:23:56;101687.28;;;13.47;89.47
18918;BME280;9591;52.742;13.650;2022-10-20T12:30:42;101680.84;;;13.54;94.23
18918;BME280;9591;52.742;13.650;2022-10-20T12:33:39;101676.22;;;13.60;92.47
18918;BME280;9591;52.742;13.650;2022-10-20T12:36:36;101674.66;;;13.53;89.40
18918;BME280;9591;52.742;13.650;2022-10-20T12:39:27;101677.19;;;13.58;89.02
18918;BME280;9591;52.742;13.650;2022-10-20T12:42:19;101669.84;;;13.66;88.39
18918;BME280;9591;52.742;13.650;2022-10-20T12:45:24;101681.63;;;13.57;91.40
18918;BME280;9591;52.742;13.650;2022-10-20T12:48:19;101683.38;;;13.58;92.24
18918;BME280;9591;52.742;13.650;2022-10-20T12:51:17;101686.34;;;13.48;92.46
18918;BME280;9591;52.742;13.650;2022-10-20T12:54:15;101682.78;;;13.49;89.93
18918;BME280;9591;52.742;13.650;2022-10-20T12:57:25;101680.59;;;13.32;94.48
18918;BME280;9591;52.742;13.650;2022-10-20T13:03:42;101657.44;;;13.35;91.99
18918;BME280;9591;52.742;13.650;2022-10-20T13:06:41;101657.44;;;13.35;91.93
18918;BME280;9591;52.742;13.650;2022-10-20T13:09:27;101654.84;;;13.32;92.84
18918;BME280;9591;52.742;13.650;2022-10-20T13:12:24;101642.81;;;13.19;92.14
18918;BME280;9591;52.742;13.650;2022-10-20T13:15:16;101640.16;;;13.19;93.48
18918;BME280;9591;52.742;13.650;2022-10-20T13:18:11;101638.47;;;13.17;90.29
18918;BME280;9591;52.742;13.650;2022-10-20T13:21:21;101622.34;;;13.23;90.86
18918;BME280;9591;52.742;13.650;2022-10-20T13:24:14;101625.00;;;13.23;90.68
18918;BME280;9591;52.742;13.650;2022-10-20T13:27:07;101624.91;;;13.26;92.27
18918;BME280;9591;52.742;13.650;2022-10-20T13:29:54;101614.34;;;13.23;90.28
18918;BME280;9591;52.742;13.650;2022-10-20T13:32:46;101612.34;;;13.31;92.06
18918;BME280;9591;52.742;13.650;2022-10-20T13:36:03;101609.03;;;13.23;92.43
18918;BME280;9591;52.742;13.650;2022-10-20T13:38:56;101597.75;;;13.13;93.50
18918;BME280;9591;52.742;13.650;2022-10-20T13:41:49;101593.53;;;13.06;92.67
18918;BME280;9591;52.742;13.650;2022-10-20T13:44:46;101598.81;;;13.07;93.18
18918;BME280;9591;52.742;13.650;2022-10-20T13:47:50;101598.06;;;13.02;93.72
18918;BME280;9591;52.742;13.650;2022-10-20T13:50:45;101597.88;;;13.08;91.94
18918;BME280;9591;52.742;13.650;2022-10-20T13:53:39;101586.66;;;12.99;91.07
18918;BME280;9591;52.742;13.650;2022-10-20T13:56:33;101588.47;;;12.98;94.47
18918;BME280;9591;52.742;13.650;2022-10-20T13:59:23;101582.97;;;13.03;96.08
18918;BME280;9591;52.742;13.650;2022-10-20T14:02:22;101579.69;;;12.95;95.19
18918;BME280;9591;52.742;13.650;2022-10-20T14:05:11;101574.59;;;12.87;93.95
18918;BME280;9591;52.742;13.650;2022-10-20T14:07:59;101587.19;;;12.80;95.23
18918;BME280;9591;52.742;13.650;2022-10-20T14:10:54;101572.84;;;12.86;94.49
18918;BME280;9591;52.742;13.650;2022-10-20T14:13:42;101567.59;;;12.85;93.82
18918;BME280;9591;52.742;13.650;2022-10-20T14:16:30;101584.56;;;12.79;93.26
18918;BME280;9591;52.742;13.650;2022-10-20T14:19:18;101574.94;;;12.75;94.04
18918;BME280;9591;52.742;13.650;2022-10-20T14:22:14;101569.00;;;12.65;93.68
18918;BME280;9591;52.742;13.650;2022-10-20T14:25:02;101566.56;;;12.58;94.61
18918;BME280;9591;52.742;13.650;2022-10-20T14:27:53;101568.47;;;12.53;93.26
18918;BME280;9591;52.742;13.650;2022-10-20T14:30:41;101564.91;;;12.54;93.80
18918;BME280;9591;52.742;13.650;2022-10-20T14:33:28;101568.66;;;12.45;95.98
18918;BME280;9591;52.742;13.650;2022-10-20T14:36:18;101553.06;;;12.33;96.27
18918;BME280;9591;52.742;13.650;2022-10-20T14:39:05;101559.34;;;12.29;94.72
18918;BME280;9591;52.742;13.650;2022-10-20T14:41:54;101556.34;;;12.42;96.18
18918;BME280;9591;52.742;13.650;2022-10-20T14:44:44;101558.53;;;12.27;96.36
18918;BME280;9591;52.742;13.650;2022-10-20T14:47:33;101555.06;;;12.23;96.40
18918;BME280;9591;52.742;13.650;2022-10-20T14:50:27;101554.19;;;12.23;96.95
18918;BME280;9591;52.742;13.650;2022-10-20T14:53:27;101559.63;;;12.18;97.62
18918;BME280;9591;52.742;13.650;2022-10-20T14:56:22;101539.84;;;11.97;98.02
18918;BME280;9591;52.742;13.650;2022-10-20T14:59:12;101565.91;;;12.15;98.51
18918;BME280;9591;52.742;13.650;2022-10-20T15:02:03;101561.50;;;12.14;99.42
18918;BME280;9591;52.742;13.650;2022-10-20T15:04:53;101568.03;;;12.03;100.00